sensor_id;sensor_type;location;lat;lon;timestamp;temperature;humidity
13462;DHT22;6803;45.264;5.468;2022-08-07T00:02:14;21.40;99.90
13462;DHT22;6803;45.264;5.468;2022-08-07T00:04:46;21.30;99.90
13462;DHT22;6803;45.264;5.468;2022-08-07T00:07:18;21.30;99.90
13462;DHT22;6803;45.264;5.468;2022-08-07T00:09:49;21.30;99.90
13462;DHT22;6803;45.264;5.468;2022-08-07T00:12:21;21.40;99.90
13462;DHT22;6803;45.264;5.468;2022-08-07T00:14:53;21.20;99.90
13462;DHT22;6803;45.264;5.468;2022-08-07T00:17:24;20.90;99.90
13462;DHT22;6803;45.264;5.468;2022-08-07T00:19:56;20.70;99.90
13462;DHT22;6803;45.264;5.468;2022-08-07T00:22:28;20.70;99.90
13462;DHT22;6803;45.264;5.468;2022-08-07T00:25:01;20.80;99.90
13462;DHT22;6803;45.264;5.468;2022-08-07T00:27:33;21.00;99.90
13462;DHT22;6803;45.264;5.468;2022-08-07T00:30:08;21.10;99.90
13462;DHT22;6803;45.264;5.468;2022-08-07T00:32:40;21.00;99.90
13462;DHT22;6803;45.264;5.468;2022-08-07T00:35:11;21.00;99.90
13462;DHT22;6803;45.264;5.468;2022-08-07T00:37:43;20.80;99.90
13462;DHT22;6803;45.264;5.468;2022-08-07T00:40:15;20.70;99.90
13462;DHT22;6803;45.264;5.468;2022-08-07T00:42:48;20.60;99.90
13462;DHT22;6803;45.264;5.468;2022-08-07T00:45:20;20.60;99.90
13462;DHT22;6803;45.264;5.468;2022-08-07T00:47:51;20.60;99.90
13462;DHT22;6803;45.264;5.468;2022-08-07T00:50:24;20.40;99.90
13462;DHT22;6803;45.264;5.468;2022-08-07T00:52:56;20.30;99.90
13462;DHT22;6803;45.264;5.468;2022-08-07T00:55:27;20.30;99.90
13462;DHT22;6803;45.264;5.468;2022-08-07T00:58:00;20.40;99.90
13462;DHT22;6803;45.264;5.468;2022-08-07T01:00:32;20.40;99.90
13462;DHT22;6803;45.264;5.468;2022-08-07T01:03:03;20.50;99.90
13462;DHT22;6803;45.264;5.468;2022-08-07T01:05:37;20.50;99.90
13462;DHT22;6803;45.264;5.468;2022-08-07T01:08:10;20.60;99.90
13462;DHT22;6803;45.264;5.468;2022-08-07T01:10:41;20.70;99.90
13462;DHT22;6803;45.264;5.468;2022-08-07T01:13:14;20.40;99.90
13462;DHT22;6803;45.264;5.468;2022-08-07T01:15:46;20.20;99.90
13462;DHT22;6803;45.264;5.468;2022-08-07T01:18:19;19.90;99.90
13462;DHT22;6803;45.264;5.468;2022-08-07T01:20:53;20.00;99.90
13462;DHT22;6803;45.264;5.468;2022-08-07T01:23:27;20.10;99.90
13462;DHT22;6803;45.264;5.468;2022-08-07T01:26:00;20.10;99.90
13462;DHT22;6803;45.264;5.468;2022-08-07T01:28:31;19.90;99.90
13462;DHT22;6803;45.264;5.468;2022-08-07T01:31:03;19.70;99.90
13462;DHT22;6803;45.264;5.468;2022-08-07T01:33:35;19.60;99.90
13462;DHT22;6803;45.264;5.468;2022-08-07T01:36:09;19.50;99.90
13462;DHT22;6803;45.264;5.468;2022-08-07T01:38:42;19.60;99.90
13462;DHT22;6803;45.264;5.468;2022-08-07T01:41:15;19.60;99.90
13462;DHT22;6803;45.264;5.468;2022-08-07T01:43:50;19.70;99.90
13462;DHT22;6803;45.264;5.468;2022-08-07T01:46:21;19.60;99.90
13462;DHT22;6803;45.264;5.468;2022-08-07T01:48:53;19.60;99.90
13462;DHT22;6803;45.264;5.468;2022-08-07T01:51:26;19.70;99.90
13462;DHT22;6803;45.264;5.468;2022-08-07T01:54:02;19.70;99.90
13462;DHT22;6803;45.264;5.468;2022-08-07T01:56:37;19.60;99.90
13462;DHT22;6803;45.264;5.468;2022-08-07T01:59:13;19.50;99.90
13462;DHT22;6803;45.264;5.468;2022-08-07T02:01:47;19.30;99.90
13462;DHT22;6803;45.264;5.468;2022-08-07T02:04:23;19.40;99.90
13462;DHT22;6803;45.264;5.468;2022-08-07T02:06:56;19.30;99.90
13462;DHT22;6803;45.264;5.468;2022-08-07T02:09:29;19.40;99.90
13462;DHT22;6803;45.264;5.468;2022-08-07T02:12:05;19.40;99.90
13462;DHT22;6803;45.264;5.468;2022-08-07T02:14:48;19.50;99.90
13462;DHT22;6803;45.264;5.468;2022-08-07T02:17:19;19.60;99.90
13462;DHT22;6803;45.264;5.468;2022-08-07T02:19:53;19.40;99.90
13462;DHT22;6803;45.264;5.468;2022-08-07T02:22:28;19.20;99.90
13462;DHT22;6803;45.264;5.468;2022-08-07T02:25:00;19.00;99.90
13462;DHT22;6803;45.264;5.468;2022-08-07T02:27:34;19.00;99.90
13462;DHT22;6803;45.264;5.468;2022-08-07T02:30:09;18.90;99.90
13462;DHT22;6803;45.264;5.468;2022-08-07T02:32:42;18.80;99.90
13462;DHT22;6803;45.264;5.468;2022-08-07T02:35:15;18.80;99.90
13462;DHT22;6803;45.264;5.468;2022-08-07T02:37:50;18.90;99.90
13462;DHT22;6803;45.264;5.468;2022-08-07T02:40:21;18.70;99.90
13462;DHT22;6803;45.264;5.468;2022-08-07T02:42:54;18.60;99.90
13462;DHT22;6803;45.264;5.468;2022-08-07T02:45:29;18.70;99.90
13462;DHT22;6803;45.264;5.468;2022-08-07T02:48:02;18.70;99.90
13462;DHT22;6803;45.264;5.468;2022-08-07T02:50:38;18.60;99.90
13462;DHT22;6803;45.264;5.468;2022-08-07T02:53:11;18.60;99.90
13462;DHT22;6803;45.264;5.468;2022-08-07T02:55:45;18.60;99.90
13462;DHT22;6803;45.264;5.468;2022-08-07T02:58:21;18.70;99.90
13462;DHT22;6803;45.264;5.468;2022-08-07T03:00:56;18.70;99.90
13462;DHT22;6803;45.264;5.468;2022-08-07T03:03:28;18.60;99.90
13462;DHT22;6803;45.264;5.468;2022-08-07T03:06:02;18.50;99.90
13462;DHT22;6803;45.264;5.468;2022-08-07T03:08:35;18.40;99.90
13462;DHT22;6803;45.264;5.468;2022-08-07T03:11:07;18.30;99.90
13462;DHT22;6803;45.264;5.468;2022-08-07T03:13:39;18.30;99.90
13462;DHT22;6803;45.264;5.468;2022-08-07T03:16:12;18.20;99.90
13462;DHT22;6803;45.264;5.468;2022-08-07T03:18:45;18.10;99.90
13462;DHT22;6803;45.264;5.468;2022-08-07T03:21:18;18.10;99.90
13462;DHT22;6803;45.264;5.468;2022-08-07T03:23:51;18.10;99.90
13462;DHT22;6803;45.264;5.468;2022-08-07T03:26:27;18.10;99.90
13462;DHT22;6803;45.264;5.468;2022-08-07T03:28:59;18.30;99.90
13462;DHT22;6803;45.264;5.468;2022-08-07T03:31:31;18.70;99.90
13462;DHT22;6803;45.264;5.468;2022-08-07T03:34:06;18.90;99.90
13462;DHT22;6803;45.264;5.468;2022-08-07T03:36:40;18.80;99.90
13462;DHT22;6803;45.264;5.468;2022-08-07T03:39:13;18.70;99.90
13462;DHT22;6803;45.264;5.468;2022-08-07T03:41:47;18.80;99.90
13462;DHT22;6803;45.264;5.468;2022-08-07T03:44:19;18.90;99.90
13462;DHT22;6803;45.264;5.468;2022-08-07T03:46:52;18.90;99.90
13462;DHT22;6803;45.264;5.468;2022-08-07T03:49:25;19.00;99.90
13462;DHT22;6803;45.264;5.468;2022-08-07T03:51:58;19.00;99.90
13462;DHT22;6803;45.264;5.468;2022-08-07T03:54:30;18.90;99.90
13462;DHT22;6803;45.264;5.468;2022-08-07T03:57:04;18.90;99.90
13462;DHT22;6803;45.264;5.468;2022-08-07T03:59:36;18.90;99.90
13462;DHT22;6803;45.264;5.468;2022-08-07T04:02:09;19.00;99.90
13462;DHT22;6803;45.264;5.468;2022-08-07T04:04:43;18.90;99.90
13462;DHT22;6803;45.264;5.468;2022-08-07T04:07:15;18.90;99.90
13462;DHT22;6803;45.264;5.468;2022-08-07T04:09:48;19.00;99.90
13462;DHT22;6803;45.264;5.468;2022-08-07T04:12:20;18.90;99.90
13462;DHT22;6803;45.264;5.468;2022-08-07T04:14:53;19.00;99.90
13462;DHT22;6803;45.264;5.468;2022-08-07T04:17:27;18.90;99.90
13462;DHT22;6803;45.264;5.468;2022-08-07T04:19:59;18.70;99.90
13462;DHT22;6803;45.264;5.468;2022-08-07T04:22:31;18.60;99.90
13462;DHT22;6803;45.264;5.468;2022-08-07T04:25:02;18.60;99.90
13462;DHT22;6803;45.264;5.468;2022-08-07T04:27:35;18.40;99.90
13462;DHT22;6803;45.264;5.468;2022-08-07T04:30:10;18.50;99.90
13462;DHT22;6803;45.264;5.468;2022-08-07T04:32:43;18.50;99.90
13462;DHT22;6803;45.264;5.468;2022-08-07T04:35:15;18.50;99.90
13462;DHT22;6803;45.264;5.468;2022-08-07T04:37:48;18.50;99.90
13462;DHT22;6803;45.264;5.468;2022-08-07T04:40:20;18.40;99.90
13462;DHT22;6803;45.264;5.468;2022-08-07T04:42:53;18.30;99.90
13462;DHT22;6803;45.264;5.468;2022-08-07T04:45:28;18.20;99.90
13462;DHT22;6803;45.264;5.468;2022-08-07T04:48:06;18.10;99.90
13462;DHT22;6803;45.264;5.468;2022-08-07T04:50:40;17.90;99.90
13462;DHT22;6803;45.264;5.468;2022-08-07T04:53:17;17.80;99.90
13462;DHT22;6803;45.264;5.468;2022-08-07T04:55:54;17.70;99.90
13462;DHT22;6803;45.264;5.468;2022-08-07T04:58:30;17.80;99.90
13462;DHT22;6803;45.264;5.468;2022-08-07T05:01:06;17.70;99.90
13462;DHT22;6803;45.264;5.468;2022-08-07T05:03:43;17.70;99.90
13462;DHT22;6803;45.264;5.468;2022-08-07T05:06:17;17.70;99.90
13462;DHT22;6803;45.264;5.468;2022-08-07T05:08:52;17.70;99.90
13462;DHT22;6803;45.264;5.468;2022-08-07T05:11:26;17.80;99.90
13462;DHT22;6803;45.264;5.468;2022-08-07T05:14:16;17.80;99.90
13462;DHT22;6803;45.264;5.468;2022-08-07T05:16:37;17.80;99.90
13462;DHT22;6803;45.264;5.468;2022-08-07T05:19:13;18.00;99.90
13462;DHT22;6803;45.264;5.468;2022-08-07T05:21:47;17.90;99.90
13462;DHT22;6803;45.264;5.468;2022-08-07T05:24:22;17.80;99.90
13462;DHT22;6803;45.264;5.468;2022-08-07T05:26:57;18.10;99.90
13462;DHT22;6803;45.264;5.468;2022-08-07T05:29:29;18.40;99.90
13462;DHT22;6803;45.264;5.468;2022-08-07T05:32:06;18.50;99.90
13462;DHT22;6803;45.264;5.468;2022-08-07T05:34:40;18.60;99.90
13462;DHT22;6803;45.264;5.468;2022-08-07T05:37:13;18.70;99.90
13462;DHT22;6803;45.264;5.468;2022-08-07T05:39:46;18.80;99.90
13462;DHT22;6803;45.264;5.468;2022-08-07T05:42:19;18.90;99.90
13462;DHT22;6803;45.264;5.468;2022-08-07T05:44:52;18.90;99.90
13462;DHT22;6803;45.264;5.468;2022-08-07T05:47:25;19.00;99.90
13462;DHT22;6803;45.264;5.468;2022-08-07T05:49:58;19.00;99.90
13462;DHT22;6803;45.264;5.468;2022-08-07T05:52:29;19.00;99.90
13462;DHT22;6803;45.264;5.468;2022-08-07T05:55:01;19.10;99.90
13462;DHT22;6803;45.264;5.468;2022-08-07T05:57:36;19.30;99.90
13462;DHT22;6803;45.264;5.468;2022-08-07T06:00:12;19.40;99.90
13462;DHT22;6803;45.264;5.468;2022-08-07T06:02:48;19.50;99.90
13462;DHT22;6803;45.264;5.468;2022-08-07T06:05:20;19.60;99.90
13462;DHT22;6803;45.264;5.468;2022-08-07T06:07:58;19.70;99.90
13462;DHT22;6803;45.264;5.468;2022-08-07T06:10:32;20.00;99.90
13462;DHT22;6803;45.264;5.468;2022-08-07T06:13:03;20.40;99.90
13462;DHT22;6803;45.264;5.468;2022-08-07T06:15:36;20.60;99.90
13462;DHT22;6803;45.264;5.468;2022-08-07T06:18:11;20.70;99.90
13462;DHT22;6803;45.264;5.468;2022-08-07T06:20:44;20.90;99.90
13462;DHT22;6803;45.264;5.468;2022-08-07T06:23:16;20.90;99.90
13462;DHT22;6803;45.264;5.468;2022-08-07T06:25:49;21.00;99.90
13462;DHT22;6803;45.264;5.468;2022-08-07T06:28:22;21.00;99.90
13462;DHT22;6803;45.264;5.468;2022-08-07T06:30:55;20.80;99.90
13462;DHT22;6803;45.264;5.468;2022-08-07T06:33:27;20.90;99.90
13462;DHT22;6803;45.264;5.468;2022-08-07T06:35:59;21.20;99.90
13462;DHT22;6803;45.264;5.468;2022-08-07T06:38:32;21.40;99.90
13462;DHT22;6803;45.264;5.468;2022-08-07T06:41:06;21.40;99.90
13462;DHT22;6803;45.264;5.468;2022-08-07T06:43:40;21.60;99.90
13462;DHT22;6803;45.264;5.468;2022-08-07T06:46:13;21.70;99.90
13462;DHT22;6803;45.264;5.468;2022-08-07T06:48:45;21.80;99.90
13462;DHT22;6803;45.264;5.468;2022-08-07T06:51:19;21.80;99.90
13462;DHT22;6803;45.264;5.468;2022-08-07T06:53:52;22.00;99.90
13462;DHT22;6803;45.264;5.468;2022-08-07T06:56:28;21.90;99.90
13462;DHT22;6803;45.264;5.468;2022-08-07T06:59:13;22.10;99.90
13462;DHT22;6803;45.264;5.468;2022-08-07T07:01:47;22.30;99.90
13462;DHT22;6803;45.264;5.468;2022-08-07T07:04:20;22.10;99.90
13462;DHT22;6803;45.264;5.468;2022-08-07T07:06:54;22.10;99.90
13462;DHT22;6803;45.264;5.468;2022-08-07T07:09:28;22.20;99.90
13462;DHT22;6803;45.264;5.468;2022-08-07T07:14:40;22.30;99.90
13462;DHT22;6803;45.264;5.468;2022-08-07T07:17:15;22.10;99.90
13462;DHT22;6803;45.264;5.468;2022-08-07T07:19:49;22.40;99.90
13462;DHT22;6803;45.264;5.468;2022-08-07T07:22:22;22.30;99.90
13462;DHT22;6803;45.264;5.468;2022-08-07T07:24:56;22.70;99.90
13462;DHT22;6803;45.264;5.468;2022-08-07T07:27:33;22.50;99.90
13462;DHT22;6803;45.264;5.468;2022-08-07T07:30:07;22.60;99.90
13462;DHT22;6803;45.264;5.468;2022-08-07T07:32:41;22.70;99.90
13462;DHT22;6803;45.264;5.468;2022-08-07T07:35:14;22.50;99.90
13462;DHT22;6803;45.264;5.468;2022-08-07T07:37:47;22.70;99.90
13462;DHT22;6803;45.264;5.468;2022-08-07T07:40:22;23.10;99.90
13462;DHT22;6803;45.264;5.468;2022-08-07T07:42:55;22.60;99.90
13462;DHT22;6803;45.264;5.468;2022-08-07T07:45:29;22.70;99.90
13462;DHT22;6803;45.264;5.468;2022-08-07T07:48:04;22.70;99.90
13462;DHT22;6803;45.264;5.468;2022-08-07T07:50:38;23.20;99.90
13462;DHT22;6803;45.264;5.468;2022-08-07T07:53:10;23.30;99.90
13462;DHT22;6803;45.264;5.468;2022-08-07T07:55:43;23.30;99.90
13462;DHT22;6803;45.264;5.468;2022-08-07T07:58:19;23.10;99.90
13462;DHT22;6803;45.264;5.468;2022-08-07T08:00:52;23.40;99.90
13462;DHT22;6803;45.264;5.468;2022-08-07T08:03:24;23.70;99.90
13462;DHT22;6803;45.264;5.468;2022-08-07T08:05:57;24.00;99.90
13462;DHT22;6803;45.264;5.468;2022-08-07T08:08:30;24.30;99.90
13462;DHT22;6803;45.264;5.468;2022-08-07T08:11:07;24.40;99.90
13462;DHT22;6803;45.264;5.468;2022-08-07T08:13:42;24.00;99.90
13462;DHT22;6803;45.264;5.468;2022-08-07T08:16:17;24.10;99.90
13462;DHT22;6803;45.264;5.468;2022-08-07T08:18:52;24.20;99.90
13462;DHT22;6803;45.264;5.468;2022-08-07T08:21:25;24.40;99.90
13462;DHT22;6803;45.264;5.468;2022-08-07T08:24:16;24.50;99.90
13462;DHT22;6803;45.264;5.468;2022-08-07T08:27:07;24.30;99.90
13462;DHT22;6803;45.264;5.468;2022-08-07T08:29:51;24.30;99.90
13462;DHT22;6803;45.264;5.468;2022-08-07T08:32:19;24.70;99.90
13462;DHT22;6803;45.264;5.468;2022-08-07T08:34:53;24.70;99.90
13462;DHT22;6803;45.264;5.468;2022-08-07T08:37:26;24.60;99.90
13462;DHT22;6803;45.264;5.468;2022-08-07T08:40:01;24.80;99.90
13462;DHT22;6803;45.264;5.468;2022-08-07T08:42:36;25.40;99.90
13462;DHT22;6803;45.264;5.468;2022-08-07T08:45:13;25.50;99.90
13462;DHT22;6803;45.264;5.468;2022-08-07T08:47:49;25.40;99.90
13462;DHT22;6803;45.264;5.468;2022-08-07T08:50:24;25.50;99.90
13462;DHT22;6803;45.264;5.468;2022-08-07T08:55:43;25.30;99.90
13462;DHT22;6803;45.264;5.468;2022-08-07T08:58:18;25.50;99.90
13462;DHT22;6803;45.264;5.468;2022-08-07T09:00:53;25.30;99.90
13462;DHT22;6803;45.264;5.468;2022-08-07T09:03:27;24.50;99.90
13462;DHT22;6803;45.264;5.468;2022-08-07T09:06:05;25.00;99.90
13462;DHT22;6803;45.264;5.468;2022-08-07T09:08:43;25.60;99.90
13462;DHT22;6803;45.264;5.468;2022-08-07T09:11:18;24.80;99.90
13462;DHT22;6803;45.264;5.468;2022-08-07T09:14:03;25.00;99.90
13462;DHT22;6803;45.264;5.468;2022-08-07T09:19:29;26.40;99.90
13462;DHT22;6803;45.264;5.468;2022-08-07T09:22:11;26.60;99.90
13462;DHT22;6803;45.264;5.468;2022-08-07T09:24:51;26.20;99.90
13462;DHT22;6803;45.264;5.468;2022-08-07T09:27:32;26.10;99.90
13462;DHT22;6803;45.264;5.468;2022-08-07T09:30:07;25.70;99.90
13462;DHT22;6803;45.264;5.468;2022-08-07T09:35:49;26.30;99.90
13462;DHT22;6803;45.264;5.468;2022-08-07T09:38:23;26.00;99.90
13462;DHT22;6803;45.264;5.468;2022-08-07T09:41:03;26.20;99.90
13462;DHT22;6803;45.264;5.468;2022-08-07T09:43:43;26.70;99.90
13462;DHT22;6803;45.264;5.468;2022-08-07T09:46:19;26.40;99.90
13462;DHT22;6803;45.264;5.468;2022-08-07T09:48:56;26.20;99.90
13462;DHT22;6803;45.264;5.468;2022-08-07T09:51:39;26.70;99.90
13462;DHT22;6803;45.264;5.468;2022-08-07T09:54:21;26.50;99.90
13462;DHT22;6803;45.264;5.468;2022-08-07T10:00:08;27.20;99.90
13462;DHT22;6803;45.264;5.468;2022-08-07T10:03:05;27.00;99.90
13462;DHT22;6803;45.264;5.468;2022-08-07T10:09:02;27.50;99.90
13462;DHT22;6803;45.264;5.468;2022-08-07T10:11:43;27.40;99.90
13462;DHT22;6803;45.264;5.468;2022-08-07T10:14:23;27.40;99.90
13462;DHT22;6803;45.264;5.468;2022-08-07T10:17:05;26.80;99.90
13462;DHT22;6803;45.264;5.468;2022-08-07T10:19:48;26.90;99.90
13462;DHT22;6803;45.264;5.468;2022-08-07T10:22:31;27.00;99.90
13462;DHT22;6803;45.264;5.468;2022-08-07T10:25:17;27.30;99.90
13462;DHT22;6803;45.264;5.468;2022-08-07T10:30:57;27.50;99.90
13462;DHT22;6803;45.264;5.468;2022-08-07T10:33:41;27.90;99.90
13462;DHT22;6803;45.264;5.468;2022-08-07T10:36:25;27.70;99.90
13462;DHT22;6803;45.264;5.468;2022-08-07T10:39:02;27.60;99.90
13462;DHT22;6803;45.264;5.468;2022-08-07T10:41:37;27.70;99.90
13462;DHT22;6803;45.264;5.468;2022-08-07T10:44:15;27.10;99.90
13462;DHT22;6803;45.264;5.468;2022-08-07T10:49:32;27.00;99.90
13462;DHT22;6803;45.264;5.468;2022-08-07T10:52:10;27.40;99.90
13462;DHT22;6803;45.264;5.468;2022-08-07T10:54:45;27.20;99.90
13462;DHT22;6803;45.264;5.468;2022-08-07T10:57:23;27.40;99.90
13462;DHT22;6803;45.264;5.468;2022-08-07T11:00:06;27.30;99.90
13462;DHT22;6803;45.264;5.468;2022-08-07T11:02:43;26.90;99.90
13462;DHT22;6803;45.264;5.468;2022-08-07T11:05:29;27.60;99.90
13462;DHT22;6803;45.264;5.468;2022-08-07T11:08:08;28.00;99.90
13462;DHT22;6803;45.264;5.468;2022-08-07T11:10:44;28.40;99.90
13462;DHT22;6803;45.264;5.468;2022-08-07T11:13:22;29.00;99.90
13462;DHT22;6803;45.264;5.468;2022-08-07T11:15:56;28.10;99.90
13462;DHT22;6803;45.264;5.468;2022-08-07T11:18:32;28.30;99.90
13462;DHT22;6803;45.264;5.468;2022-08-07T11:21:06;28.80;99.90
13462;DHT22;6803;45.264;5.468;2022-08-07T11:26:25;28.40;99.90
13462;DHT22;6803;45.264;5.468;2022-08-07T11:29:01;28.00;99.90
13462;DHT22;6803;45.264;5.468;2022-08-07T11:31:37;28.40;99.90
13462;DHT22;6803;45.264;5.468;2022-08-07T11:34:16;28.90;99.90
13462;DHT22;6803;45.264;5.468;2022-08-07T11:36:58;28.80;99.90
13462;DHT22;6803;45.264;5.468;2022-08-07T11:39:43;29.00;99.90
13462;DHT22;6803;45.264;5.468;2022-08-07T11:42:21;29.00;99.90
13462;DHT22;6803;45.264;5.468;2022-08-07T11:44:57;27.90;99.90
13462;DHT22;6803;45.264;5.468;2022-08-07T11:47:47;28.50;99.90
13462;DHT22;6803;45.264;5.468;2022-08-07T11:50:23;29.30;99.90
13462;DHT22;6803;45.264;5.468;2022-08-07T11:53:09;29.40;99.90
13462;DHT22;6803;45.264;5.468;2022-08-07T11:55:58;29.10;99.90
13462;DHT22;6803;45.264;5.468;2022-08-07T11:58:37;29.60;99.90
13462;DHT22;6803;45.264;5.468;2022-08-07T12:01:16;28.80;99.90
13462;DHT22;6803;45.264;5.468;2022-08-07T12:04:20;29.10;99.90
13462;DHT22;6803;45.264;5.468;2022-08-07T12:06:51;28.70;99.90
13462;DHT22;6803;45.264;5.468;2022-08-07T12:09:30;29.40;99.90
13462;DHT22;6803;45.264;5.468;2022-08-07T12:12:03;30.60;99.60
13462;DHT22;6803;45.264;5.468;2022-08-07T12:14:43;30.30;99.20
13462;DHT22;6803;45.264;5.468;2022-08-07T12:17:19;29.90;99.60
13462;DHT22;6803;45.264;5.468;2022-08-07T12:19:56;29.70;99.70
13462;DHT22;6803;45.264;5.468;2022-08-07T12:22:39;29.70;99.70
13462;DHT22;6803;45.264;5.468;2022-08-07T12:25:10;30.30;99.30
13462;DHT22;6803;45.264;5.468;2022-08-07T12:28:03;29.90;99.90
13462;DHT22;6803;45.264;5.468;2022-08-07T12:30:39;30.30;99.40
13462;DHT22;6803;45.264;5.468;2022-08-07T12:33:15;31.10;98.30
13462;DHT22;6803;45.264;5.468;2022-08-07T12:35:50;30.80;98.20
13462;DHT22;6803;45.264;5.468;2022-08-07T12:38:24;30.40;98.60
13462;DHT22;6803;45.264;5.468;2022-08-07T12:40:59;30.60;98.40
13462;DHT22;6803;45.264;5.468;2022-08-07T12:46:29;29.30;99.00
13462;DHT22;6803;45.264;5.468;2022-08-07T12:49:03;30.50;98.30
13462;DHT22;6803;45.264;5.468;2022-08-07T12:51:40;31.10;97.60
13462;DHT22;6803;45.264;5.468;2022-08-07T12:54:19;31.30;96.80
13462;DHT22;6803;45.264;5.468;2022-08-07T12:56:52;31.10;97.30
13462;DHT22;6803;45.264;5.468;2022-08-07T12:59:28;30.90;96.60
13462;DHT22;6803;45.264;5.468;2022-08-07T13:02:07;31.20;96.60
13462;DHT22;6803;45.264;5.468;2022-08-07T13:04:50;31.40;96.90
13462;DHT22;6803;45.264;5.468;2022-08-07T13:13:28;31.60;94.90
13462;DHT22;6803;45.264;5.468;2022-08-07T13:16:04;31.40;94.90
13462;DHT22;6803;45.264;5.468;2022-08-07T13:18:42;31.80;95.30
13462;DHT22;6803;45.264;5.468;2022-08-07T13:21:16;32.00;94.10
13462;DHT22;6803;45.264;5.468;2022-08-07T13:23:52;31.30;95.10
13462;DHT22;6803;45.264;5.468;2022-08-07T13:26:30;32.20;94.80
13462;DHT22;6803;45.264;5.468;2022-08-07T13:29:07;31.80;94.50
13462;DHT22;6803;45.264;5.468;2022-08-07T13:31:47;32.00;94.80
13462;DHT22;6803;45.264;5.468;2022-08-07T13:34:25;32.50;93.60
13462;DHT22;6803;45.264;5.468;2022-08-07T13:37:02;32.70;94.50
13462;DHT22;6803;45.264;5.468;2022-08-07T13:39:38;32.60;93.00
13462;DHT22;6803;45.264;5.468;2022-08-07T13:42:11;32.70;92.70
13462;DHT22;6803;45.264;5.468;2022-08-07T13:44:45;32.90;92.70
13462;DHT22;6803;45.264;5.468;2022-08-07T13:47:20;31.90;92.90
13462;DHT22;6803;45.264;5.468;2022-08-07T13:49:54;31.80;93.10
13462;DHT22;6803;45.264;5.468;2022-08-07T13:55:10;31.00;94.10
13462;DHT22;6803;45.264;5.468;2022-08-07T13:57:47;31.00;94.30
13462;DHT22;6803;45.264;5.468;2022-08-07T14:00:19;31.00;93.80
13462;DHT22;6803;45.264;5.468;2022-08-07T14:02:54;31.40;93.20
13462;DHT22;6803;45.264;5.468;2022-08-07T14:05:25;32.50;93.30
13462;DHT22;6803;45.264;5.468;2022-08-07T14:07:58;33.20;91.80
13462;DHT22;6803;45.264;5.468;2022-08-07T14:10:35;32.70;92.10
13462;DHT22;6803;45.264;5.468;2022-08-07T14:13:09;32.40;91.40
13462;DHT22;6803;45.264;5.468;2022-08-07T14:15:51;32.50;92.10
13462;DHT22;6803;45.264;5.468;2022-08-07T14:18:21;33.40;91.40
13462;DHT22;6803;45.264;5.468;2022-08-07T14:21:00;33.50;91.10
13462;DHT22;6803;45.264;5.468;2022-08-07T14:23:34;33.90;91.00
13462;DHT22;6803;45.264;5.468;2022-08-07T14:26:10;33.20;90.90
13462;DHT22;6803;45.264;5.468;2022-08-07T14:28:45;33.30;90.30
13462;DHT22;6803;45.264;5.468;2022-08-07T14:31:38;33.80;90.20
13462;DHT22;6803;45.264;5.468;2022-08-07T14:34:12;33.80;88.30
13462;DHT22;6803;45.264;5.468;2022-08-07T14:36:46;33.70;90.00
13462;DHT22;6803;45.264;5.468;2022-08-07T14:39:19;34.10;87.80
13462;DHT22;6803;45.264;5.468;2022-08-07T14:41:54;34.20;87.40
13462;DHT22;6803;45.264;5.468;2022-08-07T14:44:29;33.80;87.70
13462;DHT22;6803;45.264;5.468;2022-08-07T14:47:02;34.10;87.00
13462;DHT22;6803;45.264;5.468;2022-08-07T14:49:36;34.40;86.60
13462;DHT22;6803;45.264;5.468;2022-08-07T14:52:10;33.30;86.80
13462;DHT22;6803;45.264;5.468;2022-08-07T14:54:44;33.00;87.30
13462;DHT22;6803;45.264;5.468;2022-08-07T14:57:18;33.60;87.10
13462;DHT22;6803;45.264;5.468;2022-08-07T14:59:51;33.70;86.10
13462;DHT22;6803;45.264;5.468;2022-08-07T15:02:26;34.00;87.00
13462;DHT22;6803;45.264;5.468;2022-08-07T15:05:00;34.70;84.90
13462;DHT22;6803;45.264;5.468;2022-08-07T15:07:32;34.60;83.40
13462;DHT22;6803;45.264;5.468;2022-08-07T15:10:07;34.00;82.90
13462;DHT22;6803;45.264;5.468;2022-08-07T15:12:40;34.90;85.30
13462;DHT22;6803;45.264;5.468;2022-08-07T15:15:16;34.30;84.00
13462;DHT22;6803;45.264;5.468;2022-08-07T15:17:54;34.20;84.90
13462;DHT22;6803;45.264;5.468;2022-08-07T15:20:29;33.90;85.80
13462;DHT22;6803;45.264;5.468;2022-08-07T15:23:02;34.40;83.10
13462;DHT22;6803;45.264;5.468;2022-08-07T15:25:38;34.40;84.50
13462;DHT22;6803;45.264;5.468;2022-08-07T15:30:48;33.70;82.90
13462;DHT22;6803;45.264;5.468;2022-08-07T15:33:21;33.70;85.80
13462;DHT22;6803;45.264;5.468;2022-08-07T15:35:56;34.70;83.30
13462;DHT22;6803;45.264;5.468;2022-08-07T15:38:30;33.70;82.90
13462;DHT22;6803;45.264;5.468;2022-08-07T15:41:08;33.40;84.00
13462;DHT22;6803;45.264;5.468;2022-08-07T15:43:42;32.30;85.20
13462;DHT22;6803;45.264;5.468;2022-08-07T15:46:17;32.70;86.20
13462;DHT22;6803;45.264;5.468;2022-08-07T15:48:50;33.50;84.10
13462;DHT22;6803;45.264;5.468;2022-08-07T15:51:23;34.00;83.60
13462;DHT22;6803;45.264;5.468;2022-08-07T15:53:58;33.30;83.10
13462;DHT22;6803;45.264;5.468;2022-08-07T15:56:35;32.90;83.80
13462;DHT22;6803;45.264;5.468;2022-08-07T15:59:10;32.20;85.30
13462;DHT22;6803;45.264;5.468;2022-08-07T16:01:47;32.60;85.60
13462;DHT22;6803;45.264;5.468;2022-08-07T16:04:26;32.60;85.20
13462;DHT22;6803;45.264;5.468;2022-08-07T16:07:02;32.70;84.60
13462;DHT22;6803;45.264;5.468;2022-08-07T16:09:40;32.50;84.90
13462;DHT22;6803;45.264;5.468;2022-08-07T16:12:15;32.50;84.90
13462;DHT22;6803;45.264;5.468;2022-08-07T16:17:47;31.30;89.20
13462;DHT22;6803;45.264;5.468;2022-08-07T16:20:40;31.00;89.80
13462;DHT22;6803;45.264;5.468;2022-08-07T16:23:23;30.50;90.10
13462;DHT22;6803;45.264;5.468;2022-08-07T16:26:09;30.20;90.10
13462;DHT22;6803;45.264;5.468;2022-08-07T16:29:04;29.90;90.80
13462;DHT22;6803;45.264;5.468;2022-08-07T16:31:44;29.70;91.20
13462;DHT22;6803;45.264;5.468;2022-08-07T16:34:20;29.50;91.50
13462;DHT22;6803;45.264;5.468;2022-08-07T16:46:14;29.10;92.40
13462;DHT22;6803;45.264;5.468;2022-08-07T16:48:56;29.10;92.50
13462;DHT22;6803;45.264;5.468;2022-08-07T16:54:39;28.70;92.60
13462;DHT22;6803;45.264;5.468;2022-08-07T16:57:23;28.60;92.20
13462;DHT22;6803;45.264;5.468;2022-08-07T17:00:02;28.60;92.20
13462;DHT22;6803;45.264;5.468;2022-08-07T17:03:14;28.50;92.90
13462;DHT22;6803;45.264;5.468;2022-08-07T17:05:58;28.30;92.80
13462;DHT22;6803;45.264;5.468;2022-08-07T17:08:35;28.30;93.20
13462;DHT22;6803;45.264;5.468;2022-08-07T17:11:12;28.30;93.30
13462;DHT22;6803;45.264;5.468;2022-08-07T17:13:55;28.20;93.10
13462;DHT22;6803;45.264;5.468;2022-08-07T17:16:32;28.20;93.30
13462;DHT22;6803;45.264;5.468;2022-08-07T17:19:06;28.10;93.70
13462;DHT22;6803;45.264;5.468;2022-08-07T17:21:43;28.10;93.60
13462;DHT22;6803;45.264;5.468;2022-08-07T17:24:26;28.20;93.40
13462;DHT22;6803;45.264;5.468;2022-08-07T17:26:59;28.30;93.40
13462;DHT22;6803;45.264;5.468;2022-08-07T17:29:38;28.30;93.00
13462;DHT22;6803;45.264;5.468;2022-08-07T17:32:16;28.40;93.00
13462;DHT22;6803;45.264;5.468;2022-08-07T17:34:51;28.50;93.20